Tridell, Utah
Current Conditions -  °F | °C
As of 1:53 AM on Friday 21 Nov 2014 (Local Time) from KVEL Reporting Station
Clear Clear  
Wind Chill: 13°   Ceiling: Unl
Heat Index: 21°   Visibility: 10mi
Dew Point: 10°   Wind: 6mph
Humidity: 63%   Direction: 280°W
Pressure: 30.06"   Gusts: NA
Location:  40.45°N, 109.85°W
Report Text: KVEL 210853Z AUTO 28005KT 10SM CLR M06/M12 A3006 RMK AO2 SLP195 T10611122 58001
Loading
Personal Weather Stations






























Interactive Weather Map New forecast layout! Learn more

10-Day Weather Forecast

Advertisements
Track Severe Weather on mobile